Känerkinden
Datum - Zeit
TemperaturTaupunktFeuchteSolar Wind aus Richtung WindböenLuftdruck (QFF)RegenRegenstärkeTrend
04.05.2026 - 00.00Uhr14.2 °C7.3 °C63 %0.0 W/m²8.7 km/hSüdosten17.6 km/h1013.8 hPa0.0 mm0.0 mm/hwechselhaft
04.05.2026 - 00.05Uhr14.2 °C7.5 °C64 %0.0 W/m²9.0 km/hOst-SO13.0 km/h1013.8 hPa0.0 mm0.0 mm/hwechselhaft
04.05.2026 - 00.10Uhr14.2 °C7.6 °C64 %0.0 W/m²6.3 km/hSüdosten11.2 km/h1013.8 hPa0.0 mm0.0 mm/hwechselhaft
04.05.2026 - 00.15Uhr14.2 °C7.7 °C65 %0.0 W/m²8.4 km/hOst-SO14.4 km/h1013.9 hPa0.0 mm0.0 mm/hwechselhaft
04.05.2026 - 00.20Uhr14.1 °C7.6 °C65 %0.0 W/m²6.9 km/hSüdosten13.0 km/h1013.9 hPa0.0 mm0.0 mm/hwechselhaft
04.05.2026 - 00.25Uhr14.1 °C7.6 °C65 %0.0 W/m²8.8 km/hOst-SO14.4 km/h1013.8 hPa0.0 mm0.0 mm/hwechselhaft
04.05.2026 - 00.30Uhr14.1 °C7.7 °C65 %0.0 W/m²7.1 km/hOst-SO13.0 km/h1013.9 hPa0.0 mm0.0 mm/hwechselhaft
04.05.2026 - 00.35Uhr14.1 °C7.7 °C66 %0.0 W/m²7.6 km/hOst-SO14.4 km/h1014.0 hPa0.0 mm0.0 mm/hwechselhaft
04.05.2026 - 00.40Uhr14.0 °C7.7 °C66 %0.0 W/m²7.1 km/hOst-SO11.2 km/h1014.0 hPa0.0 mm0.0 mm/hwechselhaft
04.05.2026 - 00.45Uhr14.0 °C7.7 °C66 %0.0 W/m²4.9 km/hSüdosten9.7 km/h1014.0 hPa0.0 mm0.0 mm/hwechselhaft
04.05.2026 - 00.50Uhr13.9 °C7.7 °C66 %0.0 W/m²6.3 km/hSüdosten9.7 km/h1014.0 hPa0.0 mm0.0 mm/hwechselhaft
04.05.2026 - 00.55Uhr13.8 °C7.8 °C67 %0.0 W/m²3.9 km/hSüdosten9.7 km/h1014.0 hPa0.0 mm0.0 mm/hwechselhaft
04.05.2026 - 01.00Uhr13.8 °C7.7 °C67 %0.0 W/m²6.3 km/hSüdosten9.7 km/h1014.0 hPa0.0 mm0.0 mm/hwechselhaft
04.05.2026 - 01.05Uhr13.7 °C7.7 °C67 %0.0 W/m²7.0 km/hOst-SO11.2 km/h1014.0 hPa0.0 mm0.0 mm/hwechselhaft
04.05.2026 - 01.10Uhr13.6 °C7.6 °C67 %0.0 W/m²7.1 km/hOst-SO13.0 km/h1014.0 hPa0.0 mm0.0 mm/hwechselhaft
04.05.2026 - 01.15Uhr13.5 °C7.5 °C67 %0.0 W/m²6.5 km/hOst-SO13.0 km/h1014.0 hPa0.0 mm0.0 mm/hwechselhaft
04.05.2026 - 01.20Uhr13.3 °C7.3 °C67 %0.0 W/m²6.7 km/hOst-SO13.0 km/h1013.9 hPa0.0 mm0.0 mm/hwechselhaft
04.05.2026 - 01.25Uhr13.3 °C7.3 °C67 %0.0 W/m²7.4 km/hOst-SO11.2 km/h1013.9 hPa0.0 mm0.0 mm/hwechselhaft
04.05.2026 - 01.30Uhr13.2 °C7.4 °C68 %0.0 W/m²7.9 km/hOst-SO13.0 km/h1013.9 hPa0.0 mm0.0 mm/hwechselhaft
04.05.2026 - 01.35Uhr13.1 °C7.4 °C68 %0.0 W/m²7.6 km/hOst-SO11.2 km/h1013.9 hPa0.0 mm0.0 mm/hwechselhaft
04.05.2026 - 01.40Uhr13.1 °C7.5 °C69 %0.0 W/m²3.9 km/hOst-SO7.9 km/h1013.8 hPa0.0 mm0.0 mm/hwechselhaft
04.05.2026 - 01.45Uhr12.9 °C7.3 °C69 %0.0 W/m²2.9 km/hOst-SO6.5 km/h1013.7 hPa0.0 mm0.0 mm/hwechselhaft
04.05.2026 - 01.50Uhr12.9 °C7.4 °C70 %0.0 W/m²4.7 km/hOst-SO7.9 km/h1013.7 hPa0.0 mm0.0 mm/hwechselhaft
04.05.2026 - 01.55Uhr12.8 °C7.5 °C70 %0.0 W/m²6.2 km/hOst-SO7.9 km/h1013.7 hPa0.0 mm0.0 mm/hwechselhaft
04.05.2026 - 02.00Uhr12.7 °C7.4 °C70 %0.0 W/m²4.6 km/hOst-SO7.9 km/h1013.7 hPa0.0 mm0.0 mm/hwechselhaft
04.05.2026 - 02.05Uhr12.6 °C7.3 °C70 %0.0 W/m²2.8 km/hSüdosten7.9 km/h1013.7 hPa0.0 mm0.0 mm/hwechselhaft
04.05.2026 - 02.10Uhr12.5 °C7.2 °C70 %0.0 W/m²1.6 km/hSüdosten6.5 km/h1013.7 hPa0.0 mm0.0 mm/hwechselhaft
04.05.2026 - 02.15Uhr12.4 °C7.3 °C71 %0.0 W/m²1.4 km/hSüdosten6.5 km/h1013.7 hPa0.0 mm0.0 mm/hwechselhaft
04.05.2026 - 02.20Uhr12.3 °C7.2 °C71 %0.0 W/m²3.5 km/hOsten6.5 km/h1013.7 hPa0.0 mm0.0 mm/hwechselhaft
04.05.2026 - 02.25Uhr12.2 °C7.0 °C70 %0.0 W/m²0.0 km/hOsten0.0 km/h1013.7 hPa0.0 mm0.0 mm/hwechselhaft
04.05.2026 - 02.30Uhr12.0 °C6.9 °C71 %0.0 W/m²0.7 km/hOsten3.2 km/h1013.7 hPa0.0 mm0.0 mm/hwechselhaft
04.05.2026 - 02.35Uhr11.8 °C6.9 °C72 %0.0 W/m²0.0 km/hOsten0.0 km/h1013.6 hPa0.0 mm0.0 mm/hwechselhaft
04.05.2026 - 02.40Uhr11.7 °C6.8 °C72 %0.0 W/m²0.0 km/hOsten0.0 km/h1013.7 hPa0.0 mm0.0 mm/hwechselhaft
04.05.2026 - 02.45Uhr11.5 °C6.7 °C72 %0.0 W/m²0.3 km/hOsten1.4 km/h1013.6 hPa0.0 mm0.0 mm/hwechselhaft
04.05.2026 - 02.50Uhr11.3 °C6.6 °C73 %0.0 W/m²0.0 km/hOsten0.0 km/h1013.6 hPa0.0 mm0.0 mm/hwechselhaft
04.05.2026 - 02.55Uhr11.2 °C6.6 °C74 %0.0 W/m²0.0 km/hOsten0.0 km/h1013.6 hPa0.0 mm0.0 mm/hwechselhaft
04.05.2026 - 03.00Uhr11.1 °C6.8 °C75 %0.0 W/m²0.0 km/hOsten0.0 km/h1013.6 hPa0.0 mm0.0 mm/hwechselhaft
04.05.2026 - 03.05Uhr10.9 °C6.8 °C76 %0.0 W/m²0.0 km/hOsten0.0 km/h1013.7 hPa0.0 mm0.0 mm/hwechselhaft
04.05.2026 - 03.10Uhr10.9 °C6.6 °C75 %0.0 W/m²0.0 km/hOsten0.0 km/h1013.6 hPa0.0 mm0.0 mm/hwechselhaft
04.05.2026 - 03.15Uhr10.8 °C6.5 °C75 %0.0 W/m²0.0 km/hOsten0.0 km/h1013.7 hPa0.0 mm0.0 mm/hwechselhaft
04.05.2026 - 03.20Uhr10.7 °C6.7 °C76 %0.0 W/m²2.9 km/hOsten4.7 km/h1013.7 hPa0.0 mm0.0 mm/hwechselhaft
04.05.2026 - 03.25Uhr10.6 °C6.7 °C77 %0.0 W/m²1.7 km/hOsten3.2 km/h1013.8 hPa0.0 mm0.0 mm/hwechselhaft
04.05.2026 - 03.30Uhr10.5 °C6.6 °C77 %0.0 W/m²0.5 km/hOsten1.4 km/h1013.8 hPa0.0 mm0.0 mm/hwechselhaft
04.05.2026 - 03.35Uhr10.4 °C6.5 °C77 %0.0 W/m²1.1 km/hOsten3.2 km/h1013.7 hPa0.0 mm0.0 mm/hwechselhaft
04.05.2026 - 03.40Uhr10.3 °C6.5 °C78 %0.0 W/m²3.7 km/hOsten6.5 km/h1013.7 hPa0.0 mm0.0 mm/hwechselhaft
04.05.2026 - 03.45Uhr10.2 °C6.7 °C79 %0.0 W/m²2.7 km/hOsten6.5 km/h1013.7 hPa0.0 mm0.0 mm/hwechselhaft
04.05.2026 - 03.50Uhr10.2 °C6.8 °C80 %0.0 W/m²0.9 km/hOsten3.2 km/h1013.7 hPa0.0 mm0.0 mm/hwechselhaft
04.05.2026 - 03.55Uhr10.2 °C6.8 °C80 %0.0 W/m²0.0 km/hOsten0.0 km/h1013.7 hPa0.0 mm0.0 mm/hwechselhaft
04.05.2026 - 04.00Uhr10.1 °C6.6 °C79 %0.0 W/m²0.0 km/hOsten0.0 km/h1013.7 hPa0.0 mm0.0 mm/hwechselhaft
04.05.2026 - 04.05Uhr10.1 °C6.8 °C80 %0.0 W/m²0.0 km/hOsten0.0 km/h1013.7 hPa0.0 mm0.0 mm/hwechselhaft
04.05.2026 - 04.10Uhr10.1 °C6.8 °C80 %0.0 W/m²0.0 km/hOsten0.0 km/h1013.7 hPa0.0 mm0.0 mm/hwechselhaft
04.05.2026 - 04.15Uhr10.1 °C6.8 °C80 %0.0 W/m²0.0 km/hOsten0.0 km/h1013.7 hPa0.0 mm0.0 mm/hwechselhaft
04.05.2026 - 04.20Uhr10.0 °C6.6 °C80 %0.0 W/m²0.0 km/hOsten0.0 km/h1013.8 hPa0.0 mm0.0 mm/hwechselhaft
04.05.2026 - 04.25Uhr9.9 °C6.4 °C79 %0.0 W/m²0.0 km/hOsten0.0 km/h1013.7 hPa0.0 mm0.0 mm/hwechselhaft
04.05.2026 - 04.30Uhr9.8 °C6.5 °C80 %0.0 W/m²0.0 km/hOsten0.0 km/h1013.8 hPa0.0 mm0.0 mm/hwechselhaft
04.05.2026 - 04.35Uhr9.8 °C6.7 °C81 %0.0 W/m²0.0 km/hOsten0.0 km/h1013.8 hPa0.0 mm0.0 mm/hwechselhaft
04.05.2026 - 04.40Uhr9.8 °C6.7 °C81 %0.0 W/m²0.0 km/hOsten0.0 km/h1013.8 hPa0.0 mm0.0 mm/hwechselhaft
04.05.2026 - 04.45Uhr9.7 °C6.6 °C81 %0.0 W/m²0.0 km/hOsten0.0 km/h1013.8 hPa0.0 mm0.0 mm/hwechselhaft
04.05.2026 - 04.50Uhr9.7 °C6.6 °C81 %0.0 W/m²0.0 km/hOsten0.0 km/h1013.7 hPa0.0 mm0.0 mm/hwechselhaft
04.05.2026 - 04.55Uhr9.7 °C6.6 °C81 %0.0 W/m²0.0 km/hOsten0.0 km/h1013.7 hPa0.0 mm0.0 mm/hwechselhaft
04.05.2026 - 05.00Uhr9.7 °C6.5 °C81 %0.0 W/m²0.0 km/hOsten0.0 km/h1013.7 hPa0.0 mm0.0 mm/hwechselhaft
04.05.2026 - 05.05Uhr9.6 °C6.5 °C81 %0.0 W/m²0.0 km/hOsten0.0 km/h1013.6 hPa0.0 mm0.0 mm/hwechselhaft
04.05.2026 - 05.10Uhr9.6 °C6.5 °C81 %0.0 W/m²0.0 km/hOsten0.0 km/h1013.6 hPa0.0 mm0.0 mm/hwechselhaft
04.05.2026 - 05.15Uhr9.6 °C6.5 °C81 %0.0 W/m²1.6 km/hNordosten4.7 km/h1013.5 hPa0.0 mm0.0 mm/hwechselhaft
04.05.2026 - 05.20Uhr9.6 °C6.5 °C81 %0.0 W/m²0.0 km/hNordosten0.0 km/h1013.5 hPa0.0 mm0.0 mm/hwechselhaft
04.05.2026 - 05.25Uhr9.6 °C6.5 °C81 %0.0 W/m²0.0 km/hNordosten0.0 km/h1013.5 hPa0.0 mm0.0 mm/hwechselhaft
04.05.2026 - 05.30Uhr9.6 °C6.5 °C81 %0.0 W/m²0.0 km/hNordosten0.0 km/h1013.5 hPa0.0 mm0.0 mm/hwechselhaft
04.05.2026 - 05.35Uhr9.6 °C6.3 °C80 %0.0 W/m²0.0 km/hNordosten0.0 km/h1013.4 hPa0.0 mm0.0 mm/hwechselhaft
04.05.2026 - 05.40Uhr9.6 °C6.3 °C80 %0.0 W/m²0.0 km/hNordosten0.0 km/h1013.4 hPa0.0 mm0.0 mm/hwechselhaft
04.05.2026 - 05.45Uhr9.6 °C6.3 °C80 %0.0 W/m²0.0 km/hNordosten0.0 km/h1013.2 hPa0.0 mm0.0 mm/hwechselhaft
04.05.2026 - 05.50Uhr9.6 °C6.3 °C80 %0.0 W/m²0.0 km/hNordosten0.0 km/h1013.2 hPa0.0 mm0.0 mm/hwechselhaft
04.05.2026 - 05.55Uhr9.6 °C6.3 °C80 %0.0 W/m²0.0 km/hNordosten0.0 km/h1013.2 hPa0.0 mm0.0 mm/hwechselhaft
04.05.2026 - 06.00Uhr9.6 °C6.3 °C80 %0.0 W/m²0.0 km/hNordosten0.0 km/h1013.1 hPa0.0 mm0.0 mm/hwechselhaft
04.05.2026 - 06.05Uhr9.6 °C6.3 °C80 %0.0 W/m²0.0 km/hNordosten0.0 km/h1013.0 hPa0.0 mm0.0 mm/hwechselhaft
04.05.2026 - 06.10Uhr9.6 °C6.3 °C80 %5.0 W/m²0.0 km/hNordosten0.0 km/h1013.1 hPa0.0 mm0.0 mm/hwechselhaft
04.05.2026 - 06.15Uhr9.7 °C6.3 °C80 %7.0 W/m²0.0 km/hNordosten0.0 km/h1013.1 hPa0.0 mm0.0 mm/hwechselhaft
04.05.2026 - 06.20Uhr9.7 °C6.4 °C80 %7.0 W/m²0.0 km/hNordosten0.0 km/h1013.1 hPa0.0 mm0.0 mm/hwechselhaft
04.05.2026 - 06.25Uhr9.7 °C6.4 °C80 %9.0 W/m²0.0 km/hNordosten0.0 km/h1013.1 hPa0.0 mm0.0 mm/hwechselhaft
04.05.2026 - 06.30Uhr9.8 °C6.5 °C80 %11.0 W/m²0.0 km/hNordosten0.0 km/h1013.0 hPa0.0 mm0.0 mm/hwechselhaft
04.05.2026 - 06.35Uhr9.8 °C6.5 °C80 %12.0 W/m²0.0 km/hNordosten0.0 km/h1013.0 hPa0.0 mm0.0 mm/hwechselhaft
04.05.2026 - 06.40Uhr9.8 °C6.5 °C80 %16.0 W/m²0.0 km/hNordosten0.0 km/h1012.9 hPa0.0 mm0.0 mm/hwechselhaft
04.05.2026 - 06.45Uhr9.8 °C6.5 °C80 %19.0 W/m²0.0 km/hNordosten0.0 km/h1012.9 hPa0.0 mm0.0 mm/hwechselhaft
04.05.2026 - 06.50Uhr9.9 °C6.6 °C80 %19.0 W/m²2.1 km/hWest-SW4.7 km/h1013.0 hPa0.0 mm0.0 mm/hwechselhaft
04.05.2026 - 06.55Uhr10.0 °C6.7 °C80 %23.0 W/m²1.6 km/hWest-SW3.2 km/h1013.0 hPa0.0 mm0.0 mm/hwechselhaft
04.05.2026 - 07.00Uhr10.2 °C6.7 °C79 %23.0 W/m²0.0 km/hWest-SW0.0 km/h1013.0 hPa0.0 mm0.0 mm/hwechselhaft
04.05.2026 - 07.05Uhr10.2 °C6.7 °C79 %26.0 W/m²0.0 km/hWest-SW0.0 km/h1013.0 hPa0.0 mm0.0 mm/hwechselhaft
04.05.2026 - 07.10Uhr10.3 °C7.0 °C80 %32.0 W/m²1.8 km/hSüdosten3.2 km/h1013.0 hPa0.0 mm0.0 mm/hwechselhaft
04.05.2026 - 07.15Uhr10.5 °C7.2 °C80 %37.0 W/m²1.1 km/hSüdosten3.2 km/h1013.0 hPa0.0 mm0.0 mm/hwechselhaft
04.05.2026 - 07.20Uhr10.6 °C7.3 °C80 %42.0 W/m²0.6 km/hSüdosten3.2 km/h1013.0 hPa0.0 mm0.0 mm/hwechselhaft
04.05.2026 - 07.25Uhr10.7 °C7.3 °C80 %42.0 W/m²0.9 km/hSüdosten3.2 km/h1013.1 hPa0.0 mm0.0 mm/hwechselhaft
04.05.2026 - 07.30Uhr10.8 °C7.3 °C79 %35.0 W/m²2.4 km/hNordosten4.7 km/h1013.1 hPa0.0 mm0.0 mm/hwechselhaft
04.05.2026 - 07.35Uhr10.9 °C7.4 °C79 %35.0 W/m²2.4 km/hNordosten4.7 km/h1013.1 hPa0.0 mm0.0 mm/hwechselhaft
04.05.2026 - 07.40Uhr11.1 °C7.5 °C78 %42.0 W/m²1.5 km/hOsten3.2 km/h1013.1 hPa0.0 mm0.0 mm/hwechselhaft
04.05.2026 - 07.45Uhr11.1 °C7.4 °C78 %54.0 W/m²0.9 km/hOsten3.2 km/h1013.1 hPa0.0 mm0.0 mm/hwechselhaft
04.05.2026 - 07.50Uhr11.2 °C7.5 °C78 %62.0 W/m²0.0 km/hOsten0.0 km/h1013.1 hPa0.0 mm0.0 mm/hwechselhaft
04.05.2026 - 07.55Uhr11.3 °C7.6 °C78 %62.0 W/m²3.4 km/hOsten7.9 km/h1013.1 hPa0.0 mm0.0 mm/hwechselhaft
04.05.2026 - 08.00Uhr11.4 °C7.7 °C78 %69.0 W/m²5.2 km/hOsten7.9 km/h1013.0 hPa0.0 mm0.0 mm/hwechselhaft
04.05.2026 - 08.05Uhr11.5 °C8.0 °C79 %76.0 W/m²5.9 km/hOst-SO9.7 km/h1013.0 hPa0.0 mm0.0 mm/hwechselhaft
04.05.2026 - 08.10Uhr11.7 °C8.0 °C78 %79.0 W/m²7.4 km/hOst-SO9.7 km/h1013.1 hPa0.0 mm0.0 mm/hwechselhaft
04.05.2026 - 08.15Uhr11.8 °C8.1 °C78 %79.0 W/m²6.1 km/hOsten7.9 km/h1013.1 hPa0.0 mm0.0 mm/hwechselhaft
04.05.2026 - 08.20Uhr11.9 °C8.1 °C78 %83.0 W/m²5.0 km/hOst-SO7.9 km/h1013.2 hPa0.0 mm0.0 mm/hwechselhaft
04.05.2026 - 08.25Uhr12.1 °C8.2 °C77 %98.0 W/m²6.1 km/hOsten9.7 km/h1013.2 hPa0.0 mm0.0 mm/hwechselhaft
04.05.2026 - 08.30Uhr12.2 °C8.3 °C77 %128.0 W/m²5.4 km/hOst-SO9.7 km/h1013.2 hPa0.0 mm0.0 mm/hwechselhaft
04.05.2026 - 08.35Uhr12.3 °C8.4 °C77 %169.0 W/m²5.2 km/hOst-SO9.7 km/h1013.3 hPa0.0 mm0.0 mm/hwechselhaft
04.05.2026 - 08.40Uhr12.6 °C8.5 °C76 %192.0 W/m²4.9 km/hOst-SO7.9 km/h1013.3 hPa0.0 mm0.0 mm/hwechselhaft
04.05.2026 - 08.45Uhr12.8 °C8.7 °C76 %202.0 W/m²4.7 km/hOst-SO7.9 km/h1013.3 hPa0.0 mm0.0 mm/hwechselhaft
04.05.2026 - 08.50Uhr12.9 °C8.8 °C76 %218.0 W/m²3.0 km/hOst-SO7.9 km/h1013.3 hPa0.0 mm0.0 mm/hwechselhaft
04.05.2026 - 08.55Uhr13.2 °C9.0 °C75 %253.0 W/m²2.8 km/hOst-SO6.5 km/h1013.2 hPa0.0 mm0.0 mm/hwechselhaft
04.05.2026 - 09.00Uhr13.4 °C9.0 °C74 %281.0 W/m²3.9 km/hOsten6.5 km/h1013.2 hPa0.0 mm0.0 mm/hwechselhaft
04.05.2026 - 09.05Uhr13.8 °C9.1 °C74 %308.0 W/m²3.1 km/hOsten6.5 km/h1013.2 hPa0.0 mm0.0 mm/hwechselhaft
04.05.2026 - 09.10Uhr14.0 °C9.2 °C73 %283.0 W/m²4.2 km/hOsten7.9 km/h1013.2 hPa0.0 mm0.0 mm/hwechselhaft
04.05.2026 - 09.15Uhr14.3 °C9.1 °C71 %253.0 W/m²2.6 km/hOsten6.5 km/h1013.2 hPa0.0 mm0.0 mm/hwechselhaft
04.05.2026 - 09.20Uhr14.5 °C9.3 °C71 %330.0 W/m²0.8 km/hOsten3.2 km/h1013.2 hPa0.0 mm0.0 mm/hwechselhaft
04.05.2026 - 09.25Uhr14.7 °C8.9 °C68 %388.0 W/m²1.6 km/hOsten3.2 km/h1013.2 hPa0.0 mm0.0 mm/hwechselhaft
04.05.2026 - 09.30Uhr15.0 °C8.7 °C66 %404.0 W/m²2.2 km/hOsten6.5 km/h1013.2 hPa0.0 mm0.0 mm/hwechselhaft
04.05.2026 - 09.35Uhr15.3 °C8.3 °C63 %396.0 W/m²2.3 km/hOsten6.5 km/h1013.2 hPa0.0 mm0.0 mm/hwechselhaft
04.05.2026 - 09.40Uhr15.7 °C8.8 °C64 %401.0 W/m²1.7 km/hOsten7.9 km/h1013.2 hPa0.0 mm0.0 mm/hwechselhaft
04.05.2026 - 09.45Uhr15.9 °C8.8 °C62 %448.0 W/m²4.2 km/hOst-SO9.7 km/h1013.2 hPa0.0 mm0.0 mm/hwechselhaft
04.05.2026 - 09.50Uhr16.2 °C8.6 °C61 %385.0 W/m²4.2 km/hOsten7.9 km/h1013.2 hPa0.0 mm0.0 mm/hwechselhaft
04.05.2026 - 09.55Uhr16.4 °C8.3 °C59 %378.0 W/m²4.1 km/hNord-NO7.9 km/h1013.2 hPa0.0 mm0.0 mm/hwechselhaft
04.05.2026 - 10.00Uhr16.4 °C7.8 °C57 %394.0 W/m²2.7 km/hNord-NW7.9 km/h1013.2 hPa0.0 mm0.0 mm/hwechselhaft
04.05.2026 - 10.05Uhr16.5 °C8.0 °C57 %385.0 W/m²2.2 km/hWest-SW4.7 km/h1013.2 hPa0.0 mm0.0 mm/hwechselhaft
04.05.2026 - 10.10Uhr16.6 °C8.3 °C58 %387.0 W/m²4.2 km/hNordwesten6.5 km/h1013.2 hPa0.0 mm0.0 mm/hwechselhaft
04.05.2026 - 10.15Uhr16.6 °C8.0 °C57 %376.0 W/m²2.9 km/hNordwesten4.7 km/h1013.1 hPa0.0 mm0.0 mm/hwechselhaft
04.05.2026 - 10.20Uhr16.6 °C8.2 °C58 %475.0 W/m²2.7 km/hWest-NW4.7 km/h1013.1 hPa0.0 mm0.0 mm/hwechselhaft
04.05.2026 - 10.25Uhr16.7 °C7.9 °C56 %508.0 W/m²4.2 km/hNordosten9.7 km/h1013.0 hPa0.0 mm0.0 mm/hwechselhaft
04.05.2026 - 10.30Uhr16.7 °C7.7 °C56 %508.0 W/m²1.3 km/hNordosten3.2 km/h1013.0 hPa0.0 mm0.0 mm/hwechselhaft
04.05.2026 - 10.35Uhr16.8 °C8.0 °C56 %508.0 W/m²3.9 km/hNord-NW7.9 km/h1013.0 hPa0.0 mm0.0 mm/hwechselhaft
04.05.2026 - 10.40Uhr16.9 °C7.7 °C55 %445.0 W/m²3.6 km/hWest-NW7.9 km/h1013.0 hPa0.0 mm0.0 mm/hwechselhaft
04.05.2026 - 10.45Uhr17.0 °C8.2 °C56 %376.0 W/m²4.1 km/hOst-SO7.9 km/h1013.0 hPa0.0 mm0.0 mm/hwechselhaft
04.05.2026 - 10.50Uhr17.2 °C8.4 °C56 %318.0 W/m²5.4 km/hNordwesten9.7 km/h1012.9 hPa0.0 mm0.0 mm/hwechselhaft
04.05.2026 - 10.55Uhr17.2 °C8.6 °C57 %455.0 W/m²2.8 km/hWesten4.7 km/h1013.0 hPa0.0 mm0.0 mm/hwechselhaft
04.05.2026 - 11.00Uhr17.3 °C8.7 °C57 %503.0 W/m²4.9 km/hWest-SW6.5 km/h1013.0 hPa0.0 mm0.0 mm/hwechselhaft